sensor_id;sensor_type;location;lat;lon;timestamp;temperature;humidity
20158;DHT22;10239;56.820;24.416;2023-07-29T00:01:10;17.00;99.90
20158;DHT22;10239;56.820;24.416;2023-07-29T00:03:38;17.00;99.90
20158;DHT22;10239;56.820;24.416;2023-07-29T00:06:05;16.90;99.90
20158;DHT22;10239;56.820;24.416;2023-07-29T00:08:33;16.90;99.90
20158;DHT22;10239;56.820;24.416;2023-07-29T00:11:00;16.80;99.90
20158;DHT22;10239;56.820;24.416;2023-07-29T00:13:28;16.90;99.90
20158;DHT22;10239;56.820;24.416;2023-07-29T00:15:56;16.90;99.90
20158;DHT22;10239;56.820;24.416;2023-07-29T00:18:23;17.00;99.90
20158;DHT22;10239;56.820;24.416;2023-07-29T00:20:51;16.90;99.90
20158;DHT22;10239;56.820;24.416;2023-07-29T00:23:19;16.70;99.90
20158;DHT22;10239;56.820;24.416;2023-07-29T00:25:46;16.60;99.90
20158;DHT22;10239;56.820;24.416;2023-07-29T00:28:14;16.50;99.90
20158;DHT22;10239;56.820;24.416;2023-07-29T00:30:44;16.40;99.90
20158;DHT22;10239;56.820;24.416;2023-07-29T00:33:12;16.30;99.90
20158;DHT22;10239;56.820;24.416;2023-07-29T00:35:39;16.30;99.90
20158;DHT22;10239;56.820;24.416;2023-07-29T00:38:07;16.40;99.90
20158;DHT22;10239;56.820;24.416;2023-07-29T00:40:35;16.40;99.90
20158;DHT22;10239;56.820;24.416;2023-07-29T00:43:03;16.30;99.90
20158;DHT22;10239;56.820;24.416;2023-07-29T00:45:32;16.40;99.90
20158;DHT22;10239;56.820;24.416;2023-07-29T00:48:00;16.10;99.90
20158;DHT22;10239;56.820;24.416;2023-07-29T00:50:30;16.20;99.90
20158;DHT22;10239;56.820;24.416;2023-07-29T00:53:00;16.10;99.90
20158;DHT22;10239;56.820;24.416;2023-07-29T00:55:28;16.30;99.90
20158;DHT22;10239;56.820;24.416;2023-07-29T00:57:56;16.40;99.90
20158;DHT22;10239;56.820;24.416;2023-07-29T01:00:25;16.50;99.90
20158;DHT22;10239;56.820;24.416;2023-07-29T01:02:53;16.50;99.90
20158;DHT22;10239;56.820;24.416;2023-07-29T01:05:26;16.40;99.90
20158;DHT22;10239;56.820;24.416;2023-07-29T01:13:50;16.20;99.90
20158;DHT22;10239;56.820;24.416;2023-07-29T01:16:46;16.20;99.90
20158;DHT22;10239;56.820;24.416;2023-07-29T01:22:03;16.30;99.90
20158;DHT22;10239;56.820;24.416;2023-07-29T01:24:31;16.20;99.90
20158;DHT22;10239;56.820;24.416;2023-07-29T01:26:59;16.10;99.90
20158;DHT22;10239;56.820;24.416;2023-07-29T01:29:28;16.20;99.90
20158;DHT22;10239;56.820;24.416;2023-07-29T01:32:01;16.10;99.90
20158;DHT22;10239;56.820;24.416;2023-07-29T01:34:35;16.30;99.90
20158;DHT22;10239;56.820;24.416;2023-07-29T01:37:09;16.40;99.90
20158;DHT22;10239;56.820;24.416;2023-07-29T01:39:40;16.40;99.90
20158;DHT22;10239;56.820;24.416;2023-07-29T01:42:08;16.20;99.90
20158;DHT22;10239;56.820;24.416;2023-07-29T01:44:36;16.10;99.90
20158;DHT22;10239;56.820;24.416;2023-07-29T01:47:04;16.30;99.90
20158;DHT22;10239;56.820;24.416;2023-07-29T01:49:34;16.30;99.90
20158;DHT22;10239;56.820;24.416;2023-07-29T01:52:01;16.40;99.90
20158;DHT22;10239;56.820;24.416;2023-07-29T01:54:29;16.20;99.90
20158;DHT22;10239;56.820;24.416;2023-07-29T01:56:57;16.20;99.90
20158;DHT22;10239;56.820;24.416;2023-07-29T01:59:24;16.00;99.90
20158;DHT22;10239;56.820;24.416;2023-07-29T02:01:52;16.00;99.90
20158;DHT22;10239;56.820;24.416;2023-07-29T02:04:20;16.00;99.90
20158;DHT22;10239;56.820;24.416;2023-07-29T02:06:47;15.90;99.90
20158;DHT22;10239;56.820;24.416;2023-07-29T02:09:15;15.90;99.90
20158;DHT22;10239;56.820;24.416;2023-07-29T02:11:42;15.80;99.90
20158;DHT22;10239;56.820;24.416;2023-07-29T02:14:10;15.80;99.90
20158;DHT22;10239;56.820;24.416;2023-07-29T02:16:38;15.70;99.90
20158;DHT22;10239;56.820;24.416;2023-07-29T02:19:07;15.70;99.90
20158;DHT22;10239;56.820;24.416;2023-07-29T02:21:34;15.60;99.90
20158;DHT22;10239;56.820;24.416;2023-07-29T02:24:02;15.70;99.90
20158;DHT22;10239;56.820;24.416;2023-07-29T02:26:30;15.50;99.90
20158;DHT22;10239;56.820;24.416;2023-07-29T02:28:57;15.40;99.90
20158;DHT22;10239;56.820;24.416;2023-07-29T02:31:25;15.50;99.90
20158;DHT22;10239;56.820;24.416;2023-07-29T02:33:53;15.50;99.90
20158;DHT22;10239;56.820;24.416;2023-07-29T02:36:21;15.50;99.90
20158;DHT22;10239;56.820;24.416;2023-07-29T02:38:48;15.50;99.90
20158;DHT22;10239;56.820;24.416;2023-07-29T02:41:16;15.50;99.90
20158;DHT22;10239;56.820;24.416;2023-07-29T02:43:48;15.30;99.90
20158;DHT22;10239;56.820;24.416;2023-07-29T02:46:17;15.40;99.90
20158;DHT22;10239;56.820;24.416;2023-07-29T02:48:51;15.40;99.90
20158;DHT22;10239;56.820;24.416;2023-07-29T02:51:18;15.40;99.90
20158;DHT22;10239;56.820;24.416;2023-07-29T02:53:50;15.50;99.90
20158;DHT22;10239;56.820;24.416;2023-07-29T02:56:21;15.60;99.90
20158;DHT22;10239;56.820;24.416;2023-07-29T02:58:49;15.60;99.90
20158;DHT22;10239;56.820;24.416;2023-07-29T03:01:18;15.40;99.90
20158;DHT22;10239;56.820;24.416;2023-07-29T03:03:50;15.50;99.90
20158;DHT22;10239;56.820;24.416;2023-07-29T03:06:18;15.40;99.90
20158;DHT22;10239;56.820;24.416;2023-07-29T03:08:45;15.50;99.90
20158;DHT22;10239;56.820;24.416;2023-07-29T03:11:16;15.50;99.90
20158;DHT22;10239;56.820;24.416;2023-07-29T03:13:44;15.40;99.90
20158;DHT22;10239;56.820;24.416;2023-07-29T03:16:18;15.50;99.90
20158;DHT22;10239;56.820;24.416;2023-07-29T03:18:54;15.30;99.90
20158;DHT22;10239;56.820;24.416;2023-07-29T03:21:27;15.50;99.90
20158;DHT22;10239;56.820;24.416;2023-07-29T03:24:02;15.60;99.90
20158;DHT22;10239;56.820;24.416;2023-07-29T03:26:30;15.60;99.90
20158;DHT22;10239;56.820;24.416;2023-07-29T03:29:05;15.70;99.90
20158;DHT22;10239;56.820;24.416;2023-07-29T03:31:32;15.70;99.90
20158;DHT22;10239;56.820;24.416;2023-07-29T03:34:00;15.70;99.90
20158;DHT22;10239;56.820;24.416;2023-07-29T03:36:32;15.60;99.90
20158;DHT22;10239;56.820;24.416;2023-07-29T03:39:04;15.80;99.90
20158;DHT22;10239;56.820;24.416;2023-07-29T03:41:31;16.00;99.90
20158;DHT22;10239;56.820;24.416;2023-07-29T03:44:01;15.90;99.90
20158;DHT22;10239;56.820;24.416;2023-07-29T03:46:28;15.80;99.90
20158;DHT22;10239;56.820;24.416;2023-07-29T03:49:01;16.00;99.90
20158;DHT22;10239;56.820;24.416;2023-07-29T03:51:34;16.10;99.90
20158;DHT22;10239;56.820;24.416;2023-07-29T03:54:02;16.10;99.90
20158;DHT22;10239;56.820;24.416;2023-07-29T03:56:36;16.30;99.90
20158;DHT22;10239;56.820;24.416;2023-07-29T03:59:07;16.40;99.90
20158;DHT22;10239;56.820;24.416;2023-07-29T04:01:35;16.40;99.90
20158;DHT22;10239;56.820;24.416;2023-07-29T04:04:07;16.40;99.90
20158;DHT22;10239;56.820;24.416;2023-07-29T04:06:35;16.40;99.90
20158;DHT22;10239;56.820;24.416;2023-07-29T04:09:03;16.50;99.90
20158;DHT22;10239;56.820;24.416;2023-07-29T04:11:31;16.70;99.90
20158;DHT22;10239;56.820;24.416;2023-07-29T04:13:59;16.50;99.90
20158;DHT22;10239;56.820;24.416;2023-07-29T04:16:26;16.70;99.90
20158;DHT22;10239;56.820;24.416;2023-07-29T04:18:56;16.70;99.90
20158;DHT22;10239;56.820;24.416;2023-07-29T04:21:23;16.70;99.90
20158;DHT22;10239;56.820;24.416;2023-07-29T04:23:51;16.80;99.90
20158;DHT22;10239;56.820;24.416;2023-07-29T04:26:19;16.80;99.90
20158;DHT22;10239;56.820;24.416;2023-07-29T04:28:47;17.00;99.90
20158;DHT22;10239;56.820;24.416;2023-07-29T04:31:14;17.30;99.90
20158;DHT22;10239;56.820;24.416;2023-07-29T04:33:42;17.20;99.90
20158;DHT22;10239;56.820;24.416;2023-07-29T04:36:10;17.20;99.90
20158;DHT22;10239;56.820;24.416;2023-07-29T04:38:43;17.50;99.90
20158;DHT22;10239;56.820;24.416;2023-07-29T04:41:11;17.60;99.90
20158;DHT22;10239;56.820;24.416;2023-07-29T04:43:38;17.70;99.90
20158;DHT22;10239;56.820;24.416;2023-07-29T04:46:07;18.10;99.90
20158;DHT22;10239;56.820;24.416;2023-07-29T04:48:38;18.10;99.90
20158;DHT22;10239;56.820;24.416;2023-07-29T04:51:06;18.60;99.90
20158;DHT22;10239;56.820;24.416;2023-07-29T04:53:34;18.80;99.90
20158;DHT22;10239;56.820;24.416;2023-07-29T04:56:04;19.00;99.90
20158;DHT22;10239;56.820;24.416;2023-07-29T04:58:31;19.20;99.90
20158;DHT22;10239;56.820;24.416;2023-07-29T05:01:03;19.30;99.90
20158;DHT22;10239;56.820;24.416;2023-07-29T05:03:31;19.70;99.90
20158;DHT22;10239;56.820;24.416;2023-07-29T05:05:59;20.30;99.90
20158;DHT22;10239;56.820;24.416;2023-07-29T05:08:27;20.80;99.90
20158;DHT22;10239;56.820;24.416;2023-07-29T05:10:57;20.30;99.90
20158;DHT22;10239;56.820;24.416;2023-07-29T05:13:24;19.80;99.90
20158;DHT22;10239;56.820;24.416;2023-07-29T05:15:52;19.50;99.90
20158;DHT22;10239;56.820;24.416;2023-07-29T05:18:20;19.00;99.90
20158;DHT22;10239;56.820;24.416;2023-07-29T05:20:49;18.90;99.90
20158;DHT22;10239;56.820;24.416;2023-07-29T05:23:16;19.40;99.90
20158;DHT22;10239;56.820;24.416;2023-07-29T05:25:44;20.20;99.90
20158;DHT22;10239;56.820;24.416;2023-07-29T05:28:12;20.90;99.90
20158;DHT22;10239;56.820;24.416;2023-07-29T05:30:39;21.40;99.90
20158;DHT22;10239;56.820;24.416;2023-07-29T05:33:07;21.50;99.90
20158;DHT22;10239;56.820;24.416;2023-07-29T05:35:39;21.00;99.90
20158;DHT22;10239;56.820;24.416;2023-07-29T05:38:07;20.60;99.90
20158;DHT22;10239;56.820;24.416;2023-07-29T05:40:36;20.30;99.90
20158;DHT22;10239;56.820;24.416;2023-07-29T05:43:03;20.10;99.90
20158;DHT22;10239;56.820;24.416;2023-07-29T05:45:31;20.00;99.90
20158;DHT22;10239;56.820;24.416;2023-07-29T05:47:59;20.00;99.90
20158;DHT22;10239;56.820;24.416;2023-07-29T05:50:28;20.10;99.90
20158;DHT22;10239;56.820;24.416;2023-07-29T05:52:55;20.40;99.90
20158;DHT22;10239;56.820;24.416;2023-07-29T05:55:23;20.80;99.90
20158;DHT22;10239;56.820;24.416;2023-07-29T05:57:51;21.10;99.90
20158;DHT22;10239;56.820;24.416;2023-07-29T06:00:19;21.20;99.90
20158;DHT22;10239;56.820;24.416;2023-07-29T06:02:46;21.00;99.90
20158;DHT22;10239;56.820;24.416;2023-07-29T06:05:17;20.90;99.90
20158;DHT22;10239;56.820;24.416;2023-07-29T06:07:44;20.70;99.90
20158;DHT22;10239;56.820;24.416;2023-07-29T06:10:14;20.80;99.90
20158;DHT22;10239;56.820;24.416;2023-07-29T06:12:45;21.20;99.90
20158;DHT22;10239;56.820;24.416;2023-07-29T06:15:13;21.60;99.90
20158;DHT22;10239;56.820;24.416;2023-07-29T06:17:41;22.50;99.90
20158;DHT22;10239;56.820;24.416;2023-07-29T06:20:10;23.50;99.90
20158;DHT22;10239;56.820;24.416;2023-07-29T06:22:38;23.60;99.90
20158;DHT22;10239;56.820;24.416;2023-07-29T06:25:06;23.50;99.90
20158;DHT22;10239;56.820;24.416;2023-07-29T06:27:34;23.00;99.90
20158;DHT22;10239;56.820;24.416;2023-07-29T06:30:01;22.40;99.90
20158;DHT22;10239;56.820;24.416;2023-07-29T06:32:29;22.20;99.90
20158;DHT22;10239;56.820;24.416;2023-07-29T06:34:56;21.80;99.90
20158;DHT22;10239;56.820;24.416;2023-07-29T06:37:24;21.60;99.90
20158;DHT22;10239;56.820;24.416;2023-07-29T06:39:52;21.40;99.90
20158;DHT22;10239;56.820;24.416;2023-07-29T06:42:20;20.80;99.90
20158;DHT22;10239;56.820;24.416;2023-07-29T06:44:47;20.70;99.90
20158;DHT22;10239;56.820;24.416;2023-07-29T06:47:15;21.20;99.90
20158;DHT22;10239;56.820;24.416;2023-07-29T06:49:42;21.60;99.90
20158;DHT22;10239;56.820;24.416;2023-07-29T06:52:10;21.70;99.90
20158;DHT22;10239;56.820;24.416;2023-07-29T06:54:38;22.60;99.90
20158;DHT22;10239;56.820;24.416;2023-07-29T06:57:06;22.80;99.90
20158;DHT22;10239;56.820;24.416;2023-07-29T06:59:33;22.90;99.90
20158;DHT22;10239;56.820;24.416;2023-07-29T07:02:01;23.10;99.90
20158;DHT22;10239;56.820;24.416;2023-07-29T07:04:29;23.10;99.90
20158;DHT22;10239;56.820;24.416;2023-07-29T07:06:57;22.90;99.90
20158;DHT22;10239;56.820;24.416;2023-07-29T07:09:24;22.80;99.90
20158;DHT22;10239;56.820;24.416;2023-07-29T07:11:52;22.70;99.90
20158;DHT22;10239;56.820;24.416;2023-07-29T07:14:19;22.40;99.90
20158;DHT22;10239;56.820;24.416;2023-07-29T07:16:47;22.20;99.90
20158;DHT22;10239;56.820;24.416;2023-07-29T07:19:15;22.30;99.90
20158;DHT22;10239;56.820;24.416;2023-07-29T07:21:42;22.80;99.90
20158;DHT22;10239;56.820;24.416;2023-07-29T07:24:10;23.40;99.90
20158;DHT22;10239;56.820;24.416;2023-07-29T07:26:38;23.80;99.90
20158;DHT22;10239;56.820;24.416;2023-07-29T07:29:06;23.70;99.90
20158;DHT22;10239;56.820;24.416;2023-07-29T07:31:34;24.00;99.90
20158;DHT22;10239;56.820;24.416;2023-07-29T07:34:02;25.10;99.90
20158;DHT22;10239;56.820;24.416;2023-07-29T07:36:30;27.40;99.90
20158;DHT22;10239;56.820;24.416;2023-07-29T07:38:58;28.70;99.90
20158;DHT22;10239;56.820;24.416;2023-07-29T07:41:25;29.40;99.90
20158;DHT22;10239;56.820;24.416;2023-07-29T07:43:53;30.00;99.90
20158;DHT22;10239;56.820;24.416;2023-07-29T07:46:21;29.90;99.90
20158;DHT22;10239;56.820;24.416;2023-07-29T07:48:48;29.60;99.90
20158;DHT22;10239;56.820;24.416;2023-07-29T07:51:16;29.50;99.90
20158;DHT22;10239;56.820;24.416;2023-07-29T07:53:44;30.10;99.90
20158;DHT22;10239;56.820;24.416;2023-07-29T07:56:12;30.80;99.90
20158;DHT22;10239;56.820;24.416;2023-07-29T07:58:39;31.90;99.90
20158;DHT22;10239;56.820;24.416;2023-07-29T08:01:08;31.40;99.90
20158;DHT22;10239;56.820;24.416;2023-07-29T08:03:36;30.60;99.90
20158;DHT22;10239;56.820;24.416;2023-07-29T08:06:05;30.00;99.90
20158;DHT22;10239;56.820;24.416;2023-07-29T08:08:36;29.10;99.90
20158;DHT22;10239;56.820;24.416;2023-07-29T08:11:04;28.90;99.90
20158;DHT22;10239;56.820;24.416;2023-07-29T08:13:32;28.50;99.90
20158;DHT22;10239;56.820;24.416;2023-07-29T08:15:59;29.40;99.90
20158;DHT22;10239;56.820;24.416;2023-07-29T08:18:27;29.70;99.90
20158;DHT22;10239;56.820;24.416;2023-07-29T08:20:55;30.20;99.90
20158;DHT22;10239;56.820;24.416;2023-07-29T08:23:25;30.50;99.90
20158;DHT22;10239;56.820;24.416;2023-07-29T08:25:58;30.60;99.90
20158;DHT22;10239;56.820;24.416;2023-07-29T08:30:58;30.80;99.90
20158;DHT22;10239;56.820;24.416;2023-07-29T08:33:27;29.90;99.90
20158;DHT22;10239;56.820;24.416;2023-07-29T08:35:55;29.60;99.90
20158;DHT22;10239;56.820;24.416;2023-07-29T08:38:23;29.50;99.90
20158;DHT22;10239;56.820;24.416;2023-07-29T08:43:29;28.20;99.90
20158;DHT22;10239;56.820;24.416;2023-07-29T08:45:59;27.40;99.90
20158;DHT22;10239;56.820;24.416;2023-07-29T08:51:09;26.40;99.90
20158;DHT22;10239;56.820;24.416;2023-07-29T08:53:38;26.60;99.90
20158;DHT22;10239;56.820;24.416;2023-07-29T08:56:07;28.10;99.90
20158;DHT22;10239;56.820;24.416;2023-07-29T08:58:35;29.80;99.90
20158;DHT22;10239;56.820;24.416;2023-07-29T09:01:04;30.70;99.90
20158;DHT22;10239;56.820;24.416;2023-07-29T09:03:32;31.00;99.90
20158;DHT22;10239;56.820;24.416;2023-07-29T09:06:00;30.80;99.90
20158;DHT22;10239;56.820;24.416;2023-07-29T09:08:30;31.40;99.90
20158;DHT22;10239;56.820;24.416;2023-07-29T09:10:57;32.00;99.90
20158;DHT22;10239;56.820;24.416;2023-07-29T09:13:25;32.30;99.90
20158;DHT22;10239;56.820;24.416;2023-07-29T09:15:57;32.90;99.90
20158;DHT22;10239;56.820;24.416;2023-07-29T09:18:27;33.10;99.90
20158;DHT22;10239;56.820;24.416;2023-07-29T09:20:59;33.00;99.90
20158;DHT22;10239;56.820;24.416;2023-07-29T09:23:28;33.00;99.90
20158;DHT22;10239;56.820;24.416;2023-07-29T09:26:03;32.40;99.90
20158;DHT22;10239;56.820;24.416;2023-07-29T09:28:38;31.50;99.90
20158;DHT22;10239;56.820;24.416;2023-07-29T09:31:07;31.90;99.90
20158;DHT22;10239;56.820;24.416;2023-07-29T09:33:46;32.70;99.90
20158;DHT22;10239;56.820;24.416;2023-07-29T09:36:14;33.40;99.90
20158;DHT22;10239;56.820;24.416;2023-07-29T09:38:43;33.50;99.90
20158;DHT22;10239;56.820;24.416;2023-07-29T09:41:13;33.50;99.90
20158;DHT22;10239;56.820;24.416;2023-07-29T09:43:43;33.80;99.90
20158;DHT22;10239;56.820;24.416;2023-07-29T09:46:10;33.30;99.90
20158;DHT22;10239;56.820;24.416;2023-07-29T09:48:38;32.60;99.90
20158;DHT22;10239;56.820;24.416;2023-07-29T09:51:13;32.30;99.90
20158;DHT22;10239;56.820;24.416;2023-07-29T09:53:43;32.30;99.90
20158;DHT22;10239;56.820;24.416;2023-07-29T09:56:15;31.60;99.90
20158;DHT22;10239;56.820;24.416;2023-07-29T09:58:44;30.90;99.90
20158;DHT22;10239;56.820;24.416;2023-07-29T10:01:13;31.10;99.90
20158;DHT22;10239;56.820;24.416;2023-07-29T10:03:42;31.60;99.90
20158;DHT22;10239;56.820;24.416;2023-07-29T10:06:12;31.80;99.90
20158;DHT22;10239;56.820;24.416;2023-07-29T10:08:42;32.20;99.90
20158;DHT22;10239;56.820;24.416;2023-07-29T10:11:11;33.00;99.90
20158;DHT22;10239;56.820;24.416;2023-07-29T10:13:39;33.10;99.90
20158;DHT22;10239;56.820;24.416;2023-07-29T10:16:08;32.70;99.90
20158;DHT22;10239;56.820;24.416;2023-07-29T10:18:36;31.90;99.90
20158;DHT22;10239;56.820;24.416;2023-07-29T10:21:05;31.30;99.90
20158;DHT22;10239;56.820;24.416;2023-07-29T10:23:38;31.20;99.90
20158;DHT22;10239;56.820;24.416;2023-07-29T10:26:10;31.60;99.90
20158;DHT22;10239;56.820;24.416;2023-07-29T10:28:46;31.60;99.90
20158;DHT22;10239;56.820;24.416;2023-07-29T10:31:17;32.30;99.90
20158;DHT22;10239;56.820;24.416;2023-07-29T10:33:46;32.60;99.90
20158;DHT22;10239;56.820;24.416;2023-07-29T10:36:14;32.70;99.90
20158;DHT22;10239;56.820;24.416;2023-07-29T10:38:42;32.90;99.90
20158;DHT22;10239;56.820;24.416;2023-07-29T10:41:10;33.30;99.90
20158;DHT22;10239;56.820;24.416;2023-07-29T10:43:38;32.90;99.90
20158;DHT22;10239;56.820;24.416;2023-07-29T10:46:22;32.10;98.80
20158;DHT22;10239;56.820;24.416;2023-07-29T10:51:37;30.10;99.90
20158;DHT22;10239;56.820;24.416;2023-07-29T10:54:13;30.10;99.90
20158;DHT22;10239;56.820;24.416;2023-07-29T10:56:49;29.30;99.90
20158;DHT22;10239;56.820;24.416;2023-07-29T11:01:57;30.30;99.90
20158;DHT22;10239;56.820;24.416;2023-07-29T11:04:25;30.40;99.90
20158;DHT22;10239;56.820;24.416;2023-07-29T11:09:58;31.30;99.30
20158;DHT22;10239;56.820;24.416;2023-07-29T11:17:44;31.50;99.20
20158;DHT22;10239;56.820;24.416;2023-07-29T11:20:13;31.20;99.60
20158;DHT22;10239;56.820;24.416;2023-07-29T11:22:41;31.20;99.90
20158;DHT22;10239;56.820;24.416;2023-07-29T11:25:11;31.50;99.90
20158;DHT22;10239;56.820;24.416;2023-07-29T11:27:39;31.70;97.70
20158;DHT22;10239;56.820;24.416;2023-07-29T11:30:10;31.10;96.80
20158;DHT22;10239;56.820;24.416;2023-07-29T11:32:39;30.90;99.20
20158;DHT22;10239;56.820;24.416;2023-07-29T11:35:12;31.10;99.60
20158;DHT22;10239;56.820;24.416;2023-07-29T11:37:46;30.70;97.30
20158;DHT22;10239;56.820;24.416;2023-07-29T11:40:23;29.90;96.50
20158;DHT22;10239;56.820;24.416;2023-07-29T11:42:52;29.60;99.90
20158;DHT22;10239;56.820;24.416;2023-07-29T11:45:21;29.70;99.00
20158;DHT22;10239;56.820;24.416;2023-07-29T11:47:58;29.70;99.00
20158;DHT22;10239;56.820;24.416;2023-07-29T11:50:28;29.80;99.90
20158;DHT22;10239;56.820;24.416;2023-07-29T11:52:56;30.00;99.90
20158;DHT22;10239;56.820;24.416;2023-07-29T11:55:24;29.90;97.90
20158;DHT22;10239;56.820;24.416;2023-07-29T11:57:52;29.10;97.90
20158;DHT22;10239;56.820;24.416;2023-07-29T12:00:20;28.90;99.90
20158;DHT22;10239;56.820;24.416;2023-07-29T12:02:49;29.30;99.90
20158;DHT22;10239;56.820;24.416;2023-07-29T12:05:18;29.60;99.90
20158;DHT22;10239;56.820;24.416;2023-07-29T12:07:49;29.80;98.90
20158;DHT22;10239;56.820;24.416;2023-07-29T12:10:17;29.90;99.60
20158;DHT22;10239;56.820;24.416;2023-07-29T12:12:49;30.00;99.90
20158;DHT22;10239;56.820;24.416;2023-07-29T12:15:28;29.60;96.60
20158;DHT22;10239;56.820;24.416;2023-07-29T12:17:56;28.90;97.00
20158;DHT22;10239;56.820;24.416;2023-07-29T12:20:29;28.40;96.90
20158;DHT22;10239;56.820;24.416;2023-07-29T12:22:59;28.30;99.70
20158;DHT22;10239;56.820;24.416;2023-07-29T12:25:32;28.70;97.60
20158;DHT22;10239;56.820;24.416;2023-07-29T12:28:06;29.00;99.90
20158;DHT22;10239;56.820;24.416;2023-07-29T12:30:41;28.70;99.50
20158;DHT22;10239;56.820;24.416;2023-07-29T12:33:09;28.90;99.30
20158;DHT22;10239;56.820;24.416;2023-07-29T12:35:37;29.00;96.70
20158;DHT22;10239;56.820;24.416;2023-07-29T12:38:06;28.90;98.00
20158;DHT22;10239;56.820;24.416;2023-07-29T12:40:38;29.00;99.50
20158;DHT22;10239;56.820;24.416;2023-07-29T12:43:06;29.00;98.30
20158;DHT22;10239;56.820;24.416;2023-07-29T12:45:36;28.90;98.90
20158;DHT22;10239;56.820;24.416;2023-07-29T12:48:08;28.70;97.20
20158;DHT22;10239;56.820;24.416;2023-07-29T12:50:37;28.30;97.20
20158;DHT22;10239;56.820;24.416;2023-07-29T12:53:06;27.90;98.30
20158;DHT22;10239;56.820;24.416;2023-07-29T12:55:35;28.00;99.90
20158;DHT22;10239;56.820;24.416;2023-07-29T12:58:03;28.20;99.70
20158;DHT22;10239;56.820;24.416;2023-07-29T13:00:30;27.80;97.10
20158;DHT22;10239;56.820;24.416;2023-07-29T13:02:58;27.60;97.60
20158;DHT22;10239;56.820;24.416;2023-07-29T13:05:26;27.30;99.90
20158;DHT22;10239;56.820;24.416;2023-07-29T13:07:54;27.20;99.90
20158;DHT22;10239;56.820;24.416;2023-07-29T13:10:21;27.40;99.90
20158;DHT22;10239;56.820;24.416;2023-07-29T13:12:49;27.50;99.90
20158;DHT22;10239;56.820;24.416;2023-07-29T13:15:18;27.80;99.90
20158;DHT22;10239;56.820;24.416;2023-07-29T13:17:45;28.00;99.90
20158;DHT22;10239;56.820;24.416;2023-07-29T13:20:13;27.90;99.50
20158;DHT22;10239;56.820;24.416;2023-07-29T13:22:41;28.00;98.90
20158;DHT22;10239;56.820;24.416;2023-07-29T13:25:08;27.60;98.30
20158;DHT22;10239;56.820;24.416;2023-07-29T13:27:36;27.20;99.30
20158;DHT22;10239;56.820;24.416;2023-07-29T13:30:04;27.00;98.70
20158;DHT22;10239;56.820;24.416;2023-07-29T13:32:32;27.10;99.10
20158;DHT22;10239;56.820;24.416;2023-07-29T13:34:59;27.40;99.80
20158;DHT22;10239;56.820;24.416;2023-07-29T13:37:27;27.40;97.60
20158;DHT22;10239;56.820;24.416;2023-07-29T13:39:55;27.10;99.90
20158;DHT22;10239;56.820;24.416;2023-07-29T13:42:22;27.10;99.90
20158;DHT22;10239;56.820;24.416;2023-07-29T13:44:50;27.30;99.90
20158;DHT22;10239;56.820;24.416;2023-07-29T13:47:17;27.50;98.60
20158;DHT22;10239;56.820;24.416;2023-07-29T13:49:45;27.70;99.90
20158;DHT22;10239;56.820;24.416;2023-07-29T13:52:14;27.80;97.00
20158;DHT22;10239;56.820;24.416;2023-07-29T13:54:41;27.70;96.30
20158;DHT22;10239;56.820;24.416;2023-07-29T13:57:09;27.90;98.90
20158;DHT22;10239;56.820;24.416;2023-07-29T13:59:37;27.90;99.00
20158;DHT22;10239;56.820;24.416;2023-07-29T14:02:06;27.80;98.50
20158;DHT22;10239;56.820;24.416;2023-07-29T14:04:34;27.70;97.20
20158;DHT22;10239;56.820;24.416;2023-07-29T14:07:01;27.60;98.30
20158;DHT22;10239;56.820;24.416;2023-07-29T14:09:29;27.50;98.20
20158;DHT22;10239;56.820;24.416;2023-07-29T14:11:57;27.40;99.00
20158;DHT22;10239;56.820;24.416;2023-07-29T14:14:25;27.60;98.50
20158;DHT22;10239;56.820;24.416;2023-07-29T14:16:52;27.60;97.90
20158;DHT22;10239;56.820;24.416;2023-07-29T14:19:20;27.50;98.90
20158;DHT22;10239;56.820;24.416;2023-07-29T14:21:48;27.20;98.50
20158;DHT22;10239;56.820;24.416;2023-07-29T14:24:15;26.80;99.60
20158;DHT22;10239;56.820;24.416;2023-07-29T14:26:43;26.50;99.90
20158;DHT22;10239;56.820;24.416;2023-07-29T14:29:11;26.40;99.90
20158;DHT22;10239;56.820;24.416;2023-07-29T14:31:39;26.40;99.90
20158;DHT22;10239;56.820;24.416;2023-07-29T14:34:06;26.60;99.90
20158;DHT22;10239;56.820;24.416;2023-07-29T14:36:34;27.00;99.90
20158;DHT22;10239;56.820;24.416;2023-07-29T14:39:02;27.10;99.90
20158;DHT22;10239;56.820;24.416;2023-07-29T14:41:30;27.40;99.90
20158;DHT22;10239;56.820;24.416;2023-07-29T14:43:58;27.60;99.90
20158;DHT22;10239;56.820;24.416;2023-07-29T14:46:25;27.50;99.90
20158;DHT22;10239;56.820;24.416;2023-07-29T14:48:53;27.60;98.80
20158;DHT22;10239;56.820;24.416;2023-07-29T14:51:21;27.70;99.80
20158;DHT22;10239;56.820;24.416;2023-07-29T14:53:49;27.60;99.90
20158;DHT22;10239;56.820;24.416;2023-07-29T14:56:18;27.60;99.50
20158;DHT22;10239;56.820;24.416;2023-07-29T14:58:49;27.40;99.90
20158;DHT22;10239;56.820;24.416;2023-07-29T15:01:18;27.20;98.90
20158;DHT22;10239;56.820;24.416;2023-07-29T15:03:45;27.10;99.40
20158;DHT22;10239;56.820;24.416;2023-07-29T15:06:13;27.00;99.50
20158;DHT22;10239;56.820;24.416;2023-07-29T15:08:41;26.90;99.20
20158;DHT22;10239;56.820;24.416;2023-07-29T15:11:08;26.90;99.60
20158;DHT22;10239;56.820;24.416;2023-07-29T15:13:36;27.00;99.40
20158;DHT22;10239;56.820;24.416;2023-07-29T15:16:04;27.10;98.70
20158;DHT22;10239;56.820;24.416;2023-07-29T15:18:32;26.90;99.90
20158;DHT22;10239;56.820;24.416;2023-07-29T15:21:00;27.00;99.90
20158;DHT22;10239;56.820;24.416;2023-07-29T15:23:29;26.90;99.90
20158;DHT22;10239;56.820;24.416;2023-07-29T15:25:57;26.90;99.90
20158;DHT22;10239;56.820;24.416;2023-07-29T15:28:25;26.60;99.90
20158;DHT22;10239;56.820;24.416;2023-07-29T15:30:53;26.40;99.90
20158;DHT22;10239;56.820;24.416;2023-07-29T15:33:21;26.20;99.90
20158;DHT22;10239;56.820;24.416;2023-07-29T15:35:49;26.20;99.90
20158;DHT22;10239;56.820;24.416;2023-07-29T15:38:17;26.30;99.90
20158;DHT22;10239;56.820;24.416;2023-07-29T15:40:45;26.40;99.90
20158;DHT22;10239;56.820;24.416;2023-07-29T15:43:12;26.40;99.90
20158;DHT22;10239;56.820;24.416;2023-07-29T15:45:40;26.30;99.90
20158;DHT22;10239;56.820;24.416;2023-07-29T15:48:07;26.40;99.90
20158;DHT22;10239;56.820;24.416;2023-07-29T15:50:35;26.40;99.90
20158;DHT22;10239;56.820;24.416;2023-07-29T15:53:03;26.30;99.90
20158;DHT22;10239;56.820;24.416;2023-07-29T15:55:30;26.30;99.90